Time;durP1;ratioP1;P1;durP2;ratioP2;P2;SDS_P1;SDS_P2;PMS_P1;PMS_P2;Temp;Humidity;BMP_temperature;BMP_pressure;BME280_temperature;BME280_humidity;BME280_pressure;Samples;Min_cycle;Max_cycle;Signal;HPM_P1;HPM_P2
2021/05/28 00:00:18;;;;;;;6.90;2.20;;;;;;;7.63;85.31;102329.56;5071080;28;20514;-57
2021/05/28 00:02:45;;;;;;;8.60;2.60;;;;;;;7.64;85.88;102328.66;5073777;28;20044;-55
2021/05/28 00:05:12;;;;;;;7.25;3.10;;;;;;;7.60;85.55;102335.75;5073866;28;20506;-56
2021/05/28 00:07:39;;;;;;;9.18;2.45;;;;;;;7.59;85.53;102337.50;5072335;28;20040;-56
2021/05/28 00:10:07;;;;;;;7.60;2.38;;;;;;;7.62;84.90;102328.69;5073740;28;20430;-56
2021/05/28 00:12:34;;;;;;;7.80;2.20;;;;;;;7.66;84.77;102335.56;5073413;28;20036;-55
2021/05/28 00:15:01;;;;;;;9.35;2.22;;;;;;;7.59;84.45;102334.91;5073459;28;20531;-55
2021/05/28 00:17:28;;;;;;;11.50;2.65;;;;;;;7.56;84.84;102327.09;5073489;28;20044;-56
2021/05/28 00:19:54;;;;;;;7.18;2.72;;;;;;;7.51;84.96;102336.00;5072064;28;20051;-57
2021/05/28 00:22:21;;;;;;;7.53;2.70;;;;;;;7.45;84.82;102334.41;5073501;28;20048;-55
2021/05/28 00:24:48;;;;;;;11.38;3.60;;;;;;;7.34;85.86;102333.88;5070313;28;20056;-54
2021/05/28 00:27:15;;;;;;;9.85;3.90;;;;;;;7.31;87.11;102336.56;5070641;28;20067;-54
2021/05/28 00:29:42;;;;;;;8.43;3.45;;;;;;;7.31;87.06;102341.78;5073225;28;20112;-55
2021/05/28 00:32:08;;;;;;;9.70;3.70;;;;;;;7.33;87.00;102350.47;5073066;28;20063;-55
2021/05/28 00:34:35;;;;;;;10.52;4.18;;;;;;;7.31;86.72;102352.25;5073239;28;20093;-55
2021/05/28 00:37:02;;;;;;;9.65;3.83;;;;;;;7.26;86.40;102358.47;5073369;28;20052;-55
2021/05/28 00:39:29;;;;;;;10.68;4.43;;;;;;;7.31;86.75;102360.09;5073097;28;20062;-56
2021/05/28 00:41:56;;;;;;;11.52;4.05;;;;;;;7.24;87.01;102362.03;5073056;28;20059;-56
2021/05/28 00:44:27;;;;;;;10.70;3.38;;;;;;;7.25;86.79;102367.25;5072843;28;20052;-56
2021/05/28 00:46:54;;;;;;;10.95;3.85;;;;;;;7.31;86.60;102362.72;5069131;28;20123;-54
2021/05/28 00:49:21;;;;;;;9.75;4.20;;;;;;;7.25;86.42;102362.00;5070493;28;21071;-56
2021/05/28 00:51:48;;;;;;;7.53;3.38;;;;;;;7.29;86.07;102357.53;5071208;28;20407;-55
2021/05/28 00:54:15;;;;;;;8.95;3.95;;;;;;;7.24;86.35;102359.41;5071605;28;20059;-55
2021/05/28 00:56:41;;;;;;;8.30;3.95;;;;;;;7.23;85.81;102360.34;5071497;28;20391;-57
2021/05/28 00:59:09;;;;;;;8.35;4.05;;;;;;;7.15;86.12;102362.28;5071524;28;20041;-56
2021/05/28 01:01:36;;;;;;;11.65;3.90;;;;;;;7.16;86.26;102364.00;5072615;28;20052;-55
2021/05/28 01:04:03;;;;;;;10.15;3.90;;;;;;;7.21;85.64;102357.75;5072596;28;20063;-56
2021/05/28 01:06:29;;;;;;;8.27;3.75;;;;;;;7.21;84.81;102365.63;5072557;28;20131;-54
2021/05/28 01:08:56;;;;;;;11.32;4.35;;;;;;;7.14;85.32;102368.41;5071435;28;20067;-55
2021/05/28 01:11:23;;;;;;;12.10;4.65;;;;;;;7.05;86.29;102372.16;5072614;28;20037;-55
2021/05/28 01:13:51;;;;;;;10.07;4.20;;;;;;;7.04;86.81;102368.66;5071287;28;20541;-56
2021/05/28 01:16:18;;;;;;;12.23;5.00;;;;;;;7.01;86.60;102367.88;5069840;28;20479;-56
2021/05/28 01:18:45;;;;;;;10.20;4.70;;;;;;;6.91;87.32;102368.13;5070208;28;20055;-54
2021/05/28 01:21:15;;;;;;;12.10;6.00;;;;;;;6.84;88.16;102368.31;5054887;28;20098;-54
2021/05/28 01:23:42;;;;;;;10.05;4.97;;;;;;;6.87;87.93;102369.09;5072321;28;20102;-55
2021/05/28 01:26:09;;;;;;;14.35;5.55;;;;;;;6.87;88.84;102376.94;5071141;28;20053;-55
2021/05/28 01:28:36;;;;;;;12.02;5.72;;;;;;;6.94;89.01;102372.44;5072470;28;20049;-54
2021/05/28 01:31:02;;;;;;;13.20;5.65;;;;;;;7.02;88.93;102374.81;5072474;28;20056;-54
2021/05/28 01:33:29;;;;;;;13.23;6.28;;;;;;;6.99;88.54;102372.28;5070521;28;20056;-56
2021/05/28 01:35:58;;;;;;;11.60;6.25;;;;;;;6.97;89.34;102368.84;5069334;28;20454;-55
2021/05/28 01:38:26;;;;;;;11.70;7.10;;;;;;;6.98;89.34;102368.84;5072382;28;20056;-55
2021/05/28 01:40:54;;;;;;;13.20;6.80;;;;;;;6.99;90.06;102367.06;5072166;28;20063;-56
2021/05/28 01:43:20;;;;;;;16.05;8.00;;;;;;;6.91;90.47;102368.13;5070866;28;20076;-55
2021/05/28 01:45:47;;;;;;;14.30;7.25;;;;;;;6.93;90.06;102366.31;5067821;28;20056;-55
2021/05/28 01:48:14;;;;;;;15.85;7.95;;;;;;;6.93;91.09;102366.31;5072422;28;20052;-56
2021/05/28 01:50:44;;;;;;;16.30;8.25;;;;;;;6.92;91.14;102361.97;5071975;28;20048;-55
2021/05/28 01:53:21;;;;;;;14.88;7.57;;;;;;;7.00;90.91;102367.03;5072205;28;20049;-55
2021/05/28 01:55:49;;;;;;;12.75;7.45;;;;;;;7.00;89.98;102369.63;5069095;28;20051;-56
2021/05/28 01:58:18;;;;;;;18.73;7.90;;;;;;;7.04;90.32;102365.19;5070424;28;20403;-54
2021/05/28 02:00:47;;;;;;;14.55;8.20;;;;;;;7.07;90.45;102372.94;5072065;28;20057;-55
2021/05/28 02:03:15;;;;;;;15.77;7.80;;;;;;;7.07;90.38;102363.34;5072120;28;20071;-56
2021/05/28 02:05:43;;;;;;;15.15;8.00;;;;;;;7.13;90.39;102364.97;5070887;28;20040;-55
2021/05/28 02:08:10;;;;;;;14.15;7.78;;;;;;;7.23;89.63;102370.81;5054145;28;20115;-55
2021/05/28 02:10:37;;;;;;;12.27;7.82;;;;;;;7.22;89.80;102369.06;5070867;28;20067;-56
2021/05/28 02:13:04;;;;;;;13.75;6.85;;;;;;;7.23;89.43;102374.25;5054298;28;20434;-55
2021/05/28 02:15:31;;;;;;;13.82;8.18;;;;;;;7.22;89.43;102371.69;5070972;28;20057;-55
2021/05/28 02:17:58;;;;;;;13.52;7.28;;;;;;;7.24;90.13;102364.66;5071197;28;20055;-57
2021/05/28 02:20:25;;;;;;;13.90;7.68;;;;;;;7.26;89.78;102368.94;5074261;28;20041;-56
2021/05/28 02:22:52;;;;;;;14.32;7.90;;;;;;;7.25;89.55;102369.88;5074027;28;20142;-55
2021/05/28 02:25:19;;;;;;;13.95;7.78;;;;;;;7.25;89.63;102372.47;5075297;28;20526;-55
2021/05/28 02:27:46;;;;;;;12.20;7.18;;;;;;;7.23;89.41;102371.66;5075541;28;20056;-55
2021/05/28 02:30:14;;;;;;;12.32;7.28;;;;;;;7.32;89.63;102369.69;5075618;28;20058;-56
2021/05/28 02:32:41;;;;;;;11.90;7.35;;;;;;;7.36;88.93;102363.47;5075448;28;20047;-55
2021/05/28 02:35:10;;;;;;;16.08;8.00;;;;;;;7.31;88.99;102368.84;5074270;28;20055;-55
2021/05/28 02:37:37;;;;;;;12.80;7.47;;;;;;;7.30;89.10;102366.25;5075759;28;20055;-55
2021/05/28 02:40:05;;;;;;;16.15;7.63;;;;;;;7.26;88.94;102368.94;5075170;28;20447;-55
2021/05/28 02:42:32;;;;;;;15.80;8.23;;;;;;;7.26;89.46;102371.56;5074023;28;20055;-56
2021/05/28 02:44:59;;;;;;;13.50;7.85;;;;;;;7.25;89.37;102369.88;5074184;28;20048;-54
2021/05/28 02:47:26;;;;;;;15.32;7.85;;;;;;;7.22;88.83;102371.69;5074308;28;20052;-56
2021/05/28 02:49:54;;;;;;;15.20;7.55;;;;;;;7.24;89.05;102376.00;5073918;28;20056;-56
2021/05/28 02:52:20;;;;;;;13.70;7.82;;;;;;;7.31;89.21;102373.19;5075031;28;20154;-56
2021/05/28 02:54:48;;;;;;;13.20;7.95;;;;;;;7.27;89.31;102375.91;5073749;28;20509;-55
2021/05/28 02:57:14;;;;;;;14.82;7.97;;;;;;;7.33;88.75;102381.88;5075074;28;20060;-56
2021/05/28 02:59:41;;;;;;;12.70;8.10;;;;;;;7.34;89.43;102383.59;5075255;28;20075;-56
2021/05/28 03:02:08;;;;;;;15.18;8.45;;;;;;;7.40;88.95;102391.28;5075044;28;20049;-56
2021/05/28 03:04:37;;;;;;;12.43;8.07;;;;;;;7.39;88.83;102394.78;5057214;28;20511;-55
2021/05/28 03:07:04;;;;;;;14.55;7.65;;;;;;;7.41;88.57;102398.22;5073575;28;20098;-54
2021/05/28 03:09:31;;;;;;;12.60;8.20;;;;;;;7.40;88.97;102402.63;5057110;28;20573;-54
2021/05/28 03:11:57;;;;;;;14.82;7.63;;;;;;;7.38;88.52;102409.63;5074676;28;20045;-53
2021/05/28 03:14:24;;;;;;;16.33;9.25;;;;;;;7.38;88.68;102408.78;5056860;28;20065;-56
2021/05/28 03:16:51;;;;;;;15.57;8.27;;;;;;;7.42;88.64;102415.66;5049577;28;20060;-56
2021/05/28 03:19:24;;;;;;;14.32;7.47;;;;;;;7.44;88.13;102413.84;5036967;28;20479;-56
2021/05/28 03:24:36;;;;;;;12.85;7.78;;;;;;;7.44;87.91;102419.09;5046638;28;20492;-56
2021/05/28 03:27:03;;;;;;;11.77;7.10;;;;;;;7.54;87.63;102419.69;5043517;28;20065;-55
2021/05/28 03:29:30;;;;;;;12.40;6.88;;;;;;;7.45;87.70;102413.81;5044513;28;20041;-55
2021/05/28 03:31:57;;;;;;;13.45;7.50;;;;;;;7.55;87.00;102421.41;5044410;28;20107;-56
2021/05/28 03:34:24;;;;;;;11.57;7.07;;;;;;;7.49;87.03;102422.44;5041238;28;20171;-55
2021/05/28 03:36:51;;;;;;;12.25;7.78;;;;;;;7.47;87.02;102429.47;5050819;28;20048;-53
2021/05/28 03:39:17;;;;;;;11.25;6.90;;;;;;;7.43;87.25;102425.22;5042658;28;20049;-55
2021/05/28 03:41:44;;;;;;;10.85;6.85;;;;;;;7.44;87.16;102425.19;5047197;28;20045;-54
2021/05/28 03:44:11;;;;;;;11.75;6.53;;;;;;;7.50;86.88;102421.53;5041411;28;20506;-54
2021/05/28 03:46:38;;;;;;;11.98;6.90;;;;;;;7.54;86.93;102427.53;5040327;28;20049;-53
2021/05/28 03:49:05;;;;;;;13.45;7.60;;;;;;;7.58;86.76;102426.56;5034356;28;20083;-57
2021/05/28 03:51:32;;;;;;;11.45;6.78;;;;;;;7.64;86.43;102438.66;5041064;28;20429;-54
2021/05/28 03:53:59;;;;;;;11.15;6.78;;;;;;;7.60;86.41;102425.63;5046547;28;20037;-55
2021/05/28 03:56:26;;;;;;;11.40;6.75;;;;;;;7.65;86.55;102422.88;5034428;28;20057;-54
2021/05/28 03:58:52;;;;;;;13.50;6.93;;;;;;;7.67;86.39;102425.47;5042976;28;20037;-55
2021/05/28 04:01:19;;;;;;;13.32;6.68;;;;;;;7.72;86.61;102420.97;5043637;28;20394;-54
2021/05/28 04:03:46;;;;;;;12.68;7.22;;;;;;;7.68;86.19;102420.19;5040840;28;20037;-54
2021/05/28 04:06:13;;;;;;;14.35;7.00;;;;;;;7.74;86.67;102427.00;5033138;28;20053;-56
2021/05/28 04:08:40;;;;;;;14.18;6.75;;;;;;;7.78;86.42;102426.00;5036134;28;20041;-54
2021/05/28 04:11:06;;;;;;;12.07;7.03;;;;;;;7.77;86.92;102427.78;5047996;28;20037;-55
2021/05/28 04:13:33;;;;;;;14.70;7.72;;;;;;;7.76;87.05;102426.06;5034388;28;20490;-55
2021/05/28 04:16:00;;;;;;;13.93;7.35;;;;;;;7.78;86.80;102432.13;5044202;28;20201;-55
2021/05/28 04:18:28;;;;;;;18.85;9.50;;;;;;;7.82;86.85;102435.50;5034067;28;20057;-55
2021/05/28 04:20:55;;;;;;;12.55;7.43;;;;;;;7.87;86.78;102438.84;5036651;28;20049;-56
2021/05/28 04:23:22;;;;;;;13.27;8.00;;;;;;;7.75;87.37;102439.19;5042694;28;20041;-56
2021/05/28 04:25:49;;;;;;;16.98;8.55;;;;;;;7.70;87.50;102441.97;5046782;28;20053;-55
2021/05/28 04:28:16;;;;;;;14.38;8.07;;;;;;;7.73;87.74;102441.88;5047939;28;20055;-55
2021/05/28 04:30:44;;;;;;;13.88;7.72;;;;;;;7.61;88.29;102442.22;5035991;28;20766;-56
2021/05/28 04:33:11;;;;;;;16.52;7.93;;;;;;;7.62;88.05;102449.13;5043634;28;20434;-57
2021/05/28 04:35:38;;;;;;;15.30;7.55;;;;;;;7.65;88.16;102445.59;5040580;28;20049;-55
2021/05/28 04:38:05;;;;;;;13.98;8.05;;;;;;;7.65;87.81;102449.06;5074556;28;20051;-55
2021/05/28 04:40:32;;;;;;;14.00;7.45;;;;;;;7.68;87.82;102445.53;5035919;28;20041;-56
2021/05/28 04:42:59;;;;;;;12.90;6.75;;;;;;;7.67;87.66;102452.50;5040186;28;20036;-56
2021/05/28 04:45:27;;;;;;;15.55;7.30;;;;;;;7.68;87.56;102456.84;5033604;28;20069;-56
2021/05/28 04:47:54;;;;;;;11.80;7.43;;;;;;;7.73;87.29;102452.34;5038554;28;20045;-56
2021/05/28 04:50:22;;;;;;;14.63;7.68;;;;;;;7.74;87.84;102456.69;5039463;28;20052;-55
2021/05/28 04:52:48;;;;;;;16.55;8.15;;;;;;;7.75;87.21;102460.16;5047157;28;20048;-55
2021/05/28 04:55:17;;;;;;;16.83;7.57;;;;;;;7.84;87.28;102462.53;5064181;28;20043;-56
2021/05/28 04:57:44;;;;;;;14.15;7.85;;;;;;;7.85;87.56;102469.47;5071525;28;20048;-55
2021/05/28 05:00:11;;;;;;;12.57;7.05;;;;;;;7.91;86.99;102469.31;5071504;28;20067;-56
2021/05/28 05:02:38;;;;;;;12.40;7.35;;;;;;;7.95;86.79;102476.19;5071554;28;20044;-54
2021/05/28 05:05:06;;;;;;;14.73;8.02;;;;;;;7.89;87.00;102478.94;5071498;28;20115;-56
2021/05/28 05:07:33;;;;;;;13.73;7.35;;;;;;;7.89;86.82;102478.94;5071442;28;20041;-56
2021/05/28 05:09:59;;;;;;;12.68;7.13;;;;;;;7.99;86.16;102473.47;5071270;28;20353;-57
2021/05/28 05:12:26;;;;;;;10.55;6.40;;;;;;;8.01;86.42;102487.38;5072581;28;20040;-57
2021/05/28 05:14:53;;;;;;;14.68;7.15;;;;;;;8.06;86.26;102496.00;5071246;28;20499;-57
2021/05/28 05:17:20;;;;;;;14.48;7.38;;;;;;;8.07;86.06;102488.09;5072514;28;20057;-55
2021/05/28 05:19:48;;;;;;;12.00;6.85;;;;;;;8.13;86.43;102487.03;5072450;28;20360;-57
2021/05/28 05:22:14;;;;;;;13.52;6.93;;;;;;;8.26;85.25;102492.78;5071244;28;20044;-57
2021/05/28 05:24:41;;;;;;;13.05;7.15;;;;;;;8.32;85.12;102494.34;5071255;28;20051;-57
2021/05/28 05:27:08;;;;;;;13.43;7.00;;;;;;;8.32;85.54;102491.72;5071798;28;20053;-55
2021/05/28 05:29:35;;;;;;;13.65;6.95;;;;;;;8.36;85.71;102499.47;5071497;28;20048;-57
2021/05/28 05:32:02;;;;;;;15.98;7.25;;;;;;;8.35;85.83;102499.53;5072342;28;20036;-57
2021/05/28 05:34:29;;;;;;;11.65;6.40;;;;;;;8.39;84.61;102496.75;5071174;28;20510;-55
2021/05/28 05:36:58;;;;;;;11.85;6.78;;;;;;;8.41;84.48;102502.84;5072394;28;20059;-57
2021/05/28 05:39:25;;;;;;;11.52;6.45;;;;;;;8.52;84.41;102506.91;5072238;28;20036;-56
2021/05/28 05:41:52;;;;;;;12.63;6.88;;;;;;;8.50;84.31;102500.88;5072277;28;20060;-55
2021/05/28 05:44:19;;;;;;;12.32;6.40;;;;;;;8.49;84.13;102502.63;5071092;28;20118;-56
2021/05/28 05:46:45;;;;;;;15.07;7.22;;;;;;;8.48;85.02;102503.53;5072418;28;20040;-56
2021/05/28 05:49:12;;;;;;;12.02;6.97;;;;;;;8.56;84.28;102504.16;5072271;28;20049;-55
2021/05/28 05:51:39;;;;;;;13.65;7.07;;;;;;;8.58;84.37;102509.38;5072157;28;20071;-56
2021/05/28 05:54:06;;;;;;;11.95;6.72;;;;;;;8.65;83.93;102504.78;5076283;28;20526;-56
2021/05/28 05:56:33;;;;;;;13.32;6.80;;;;;;;8.61;84.46;102510.09;5075042;28;20126;-57
2021/05/28 05:59:00;;;;;;;12.60;6.78;;;;;;;8.70;84.47;102524.72;5076608;28;20044;-57
2021/05/28 06:01:27;;;;;;;13.43;6.85;;;;;;;8.80;84.14;102520.06;5075136;28;20505;-57
2021/05/28 06:03:54;;;;;;;13.13;7.13;;;;;;;8.80;83.19;102522.69;5074896;28;20049;-56
2021/05/28 06:06:21;;;;;;;10.15;6.32;;;;;;;8.87;83.75;102526.81;5075083;28;20082;-57
2021/05/28 06:08:48;;;;;;;13.23;7.57;;;;;;;8.84;82.61;102526.91;5075043;28;20063;-57
2021/05/28 06:11:14;;;;;;;10.98;6.80;;;;;;;8.99;81.70;102524.72;5076226;28;20055;-55
2021/05/28 06:13:41;;;;;;;9.93;5.78;;;;;;;8.92;81.87;102524.06;5075916;28;20079;-57
2021/05/28 06:16:08;;;;;;;10.60;6.13;;;;;;;8.98;81.71;102530.88;5076047;28;20046;-57
2021/05/28 06:18:35;;;;;;;10.27;6.28;;;;;;;8.99;81.46;102524.72;5075858;28;20037;-58
2021/05/28 06:21:02;;;;;;;12.23;7.18;;;;;;;8.94;81.35;102523.13;5075550;28;20055;-56
2021/05/28 06:23:29;;;;;;;11.43;6.53;;;;;;;9.02;82.11;102535.13;5075832;28;20051;-58
2021/05/28 06:25:57;;;;;;;11.27;6.15;;;;;;;9.11;82.04;102529.59;5074635;28;20052;-54
2021/05/28 06:28:24;;;;;;;10.35;6.18;;;;;;;9.07;81.41;102528.81;5075638;28;20053;-56
2021/05/28 06:30:50;;;;;;;12.15;6.53;;;;;;;8.99;81.52;102536.06;5075586;28;20053;-57
2021/05/28 06:33:17;;;;;;;11.23;6.30;;;;;;;9.16;82.26;102532.91;5074329;28;20171;-57
2021/05/28 06:35:44;;;;;;;13.18;7.03;;;;;;;9.34;81.37;102541.09;5075438;28;20056;-57
2021/05/28 06:38:11;;;;;;;12.48;6.82;;;;;;;9.46;81.33;102538.94;5074096;28;20044;-57
2021/05/28 06:40:38;;;;;;;13.02;7.47;;;;;;;9.47;81.04;102539.78;5075620;28;20055;-57
2021/05/28 06:43:06;;;;;;;12.88;6.55;;;;;;;9.43;80.29;102538.16;5074097;28;20048;-54
2021/05/28 06:45:37;;;;;;;12.98;7.35;;;;;;;9.55;80.78;102537.75;5074212;28;20144;-57
2021/05/28 06:48:05;;;;;;;10.57;7.55;;;;;;;9.66;80.53;102531.28;5075090;28;20059;-56
2021/05/28 06:50:31;;;;;;;11.45;7.65;;;;;;;9.67;80.01;102540.84;5075201;28;20051;-56
2021/05/28 06:52:59;;;;;;;12.05;8.10;;;;;;;9.71;79.61;102537.25;5075231;28;20057;-57
2021/05/28 06:55:26;;;;;;;13.77;7.95;;;;;;;9.98;79.70;102533.63;5074043;28;20110;-56
2021/05/28 06:57:53;;;;;;;13.68;8.18;;;;;;;10.14;79.20;102533.06;5074968;28;20526;-56
2021/05/28 07:00:20;;;;;;;11.73;7.03;;;;;;;10.31;78.00;102540.34;5075168;28;20052;-57
2021/05/28 07:02:47;;;;;;;13.18;7.32;;;;;;;10.42;77.89;102540.84;5056800;28;20048;-56
2021/05/28 07:05:15;;;;;;;12.65;7.68;;;;;;;10.51;76.91;102536.16;5074925;28;20131;-56
2021/05/28 07:07:42;;;;;;;13.27;7.57;;;;;;;10.72;77.73;102542.38;5073684;28;20036;-56
2021/05/28 07:10:10;;;;;;;11.10;6.63;;;;;;;10.72;74.54;102534.47;5074784;28;20083;-59
2021/05/28 07:12:36;;;;;;;12.45;7.28;;;;;;;10.89;74.41;102544.34;5074641;28;20126;-58
2021/05/28 07:15:05;;;;;;;12.43;7.25;;;;;;;11.17;73.93;102546.72;5074396;28;20495;-58
2021/05/28 07:17:31;;;;;;;12.63;7.82;;;;;;;11.27;74.62;102549.84;5074567;28;20094;-59
2021/05/28 07:19:58;;;;;;;12.45;7.50;;;;;;;11.30;74.21;102553.22;5074659;28;20147;-59
2021/05/28 07:22:25;;;;;;;14.57;7.13;;;;;;;11.52;74.36;102554.97;5074637;28;20511;-57
2021/05/28 07:24:52;;;;;;;11.40;7.13;;;;;;;11.83;73.98;102551.00;5072881;28;20037;-59
2021/05/28 07:27:19;;;;;;;11.48;7.05;;;;;;;12.15;72.50;102557.53;5073692;28;20526;-58
2021/05/28 07:29:46;;;;;;;14.32;7.13;;;;;;;12.42;71.79;102558.97;5074318;28;20044;-58
2021/05/28 07:32:13;;;;;;;11.45;7.50;;;;;;;12.47;69.31;102560.47;5074251;28;20045;-58
2021/05/28 07:34:40;;;;;;;12.85;7.22;;;;;;;12.47;68.18;102557.00;5073396;28;20044;-58
2021/05/28 07:37:07;;;;;;;16.98;9.50;;;;;;;12.60;67.38;102567.84;5074274;28;20045;-58
2021/05/28 07:39:35;;;;;;;17.83;9.73;;;;;;;12.47;67.53;102552.56;5073212;28;20048;-58
2021/05/28 07:42:03;;;;;;;15.50;8.57;;;;;;;12.80;67.37;102553.69;5073415;28;20110;-57
2021/05/28 07:44:30;;;;;;;14.35;9.13;;;;;;;12.98;67.29;102552.81;5074254;28;20048;-56
2021/05/28 07:46:57;;;;;;;14.48;8.68;;;;;;;13.25;68.14;102560.34;5072843;28;20052;-57
2021/05/28 07:49:24;;;;;;;13.73;7.97;;;;;;;13.46;65.97;102568.16;5072986;28;20139;-57
2021/05/28 07:51:51;;;;;;;17.05;8.60;;;;;;;13.38;63.36;102557.13;5072964;28;20086;-55
2021/05/28 07:54:18;;;;;;;15.35;8.80;;;;;;;13.56;63.17;102564.13;5073023;28;20548;-57
2021/05/28 07:56:45;;;;;;;16.02;8.88;;;;;;;13.79;63.58;102555.00;5074099;28;20044;-60
2021/05/28 07:59:11;;;;;;;15.98;7.95;;;;;;;14.07;63.10;102558.88;5073912;28;20064;-59
2021/05/28 08:01:39;;;;;;;14.85;8.20;;;;;;;14.14;60.95;102557.59;5072911;28;20067;-60
2021/05/28 08:04:06;;;;;;;12.77;7.63;;;;;;;14.18;59.98;102555.66;5073722;28;20415;-59
2021/05/28 08:06:32;;;;;;;13.95;8.48;;;;;;;14.39;59.36;102553.63;5074010;28;20056;-60
2021/05/28 08:08:59;;;;;;;13.23;8.55;;;;;;;14.37;59.66;102553.72;5073806;28;20059;-59
2021/05/28 08:11:26;;;;;;;13.40;7.93;;;;;;;14.51;60.50;102550.31;5072503;28;20048;-60
2021/05/28 08:13:53;;;;;;;16.65;7.75;;;;;;;14.83;59.54;102544.19;5072252;28;20037;-60
2021/05/28 08:16:20;;;;;;;11.75;7.32;;;;;;;15.12;58.70;102549.63;5071890;28;20058;-60
2021/05/28 08:18:47;;;;;;;12.40;7.15;;;;;;;15.06;59.82;102542.91;5073486;28;20079;-60
2021/05/28 08:21:14;;;;;;;12.73;7.57;;;;;;;15.17;58.18;102545.81;5072338;28;20049;-60
2021/05/28 08:23:41;;;;;;;11.68;6.70;;;;;;;15.48;56.73;102548.44;5072340;28;20042;-60
2021/05/28 08:26:08;;;;;;;12.35;7.20;;;;;;;15.42;56.00;102547.03;5073333;28;20037;-60
2021/05/28 08:28:35;;;;;;;10.43;6.68;;;;;;;15.59;57.06;102556.59;5073288;28;20045;-60
2021/05/28 08:31:04;;;;;;;11.77;7.57;;;;;;;15.76;56.88;102539.72;5070715;28;20048;-60
2021/05/28 08:33:32;;;;;;;11.30;6.80;;;;;;;15.99;58.25;102542.78;5069805;28;20089;-60
2021/05/28 08:35:59;;;;;;;9.88;5.68;;;;;;;16.08;57.25;102547.53;5070913;28;20052;-60
2021/05/28 08:38:26;;;;;;;11.50;6.38;;;;;;;16.34;56.99;102540.56;5071857;28;20049;-60
2021/05/28 08:40:53;;;;;;;10.68;6.53;;;;;;;16.63;57.86;102545.00;5071205;28;20128;-60
2021/05/28 08:43:20;;;;;;;11.27;6.45;;;;;;;16.72;56.22;102537.28;5071680;28;20040;-60
2021/05/28 08:45:47;;;;;;;9.40;5.78;;;;;;;16.37;54.94;102532.44;5071835;28;20044;-61
2021/05/28 08:48:16;;;;;;;8.13;4.88;;;;;;;16.59;55.76;102544.31;5072822;28;20499;-61
2021/05/28 08:50:46;;;;;;;9.15;5.95;;;;;;;16.97;54.21;102541.03;5071582;28;20051;-60
2021/05/28 08:53:14;;;;;;;9.77;5.38;;;;;;;17.20;55.63;102543.97;5071665;28;20055;-61
2021/05/28 08:55:42;;;;;;;8.82;5.65;;;;;;;17.38;55.12;102541.88;5071527;28;20056;-60
2021/05/28 08:58:22;;;;;;;8.68;5.47;;;;;;;17.41;55.71;102549.69;5071478;28;20396;-60
2021/05/28 09:00:49;;;;;;;7.50;4.78;;;;;;;17.44;53.36;102543.28;5072351;28;20053;-61
2021/05/28 09:03:17;;;;;;;8.68;5.90;;;;;;;17.56;52.13;102538.00;5054622;28;20032;-58
2021/05/28 09:05:44;;;;;;;7.97;5.13;;;;;;;17.63;51.47;102538.44;5070824;28;20051;-56
2021/05/28 09:08:11;;;;;;;9.98;5.63;;;;;;;17.73;51.52;102533.31;5068327;28;20782;-58
2021/05/28 09:10:42;;;;;;;8.93;4.97;;;;;;;17.71;51.56;102537.88;5071560;28;20052;-59
2021/05/28 09:13:09;;;;;;;8.90;5.30;;;;;;;17.85;49.95;102532.47;5071241;28;20042;-59
2021/05/28 09:15:38;;;;;;;11.48;6.15;;;;;;;18.07;48.85;102531.00;5072807;28;20105;-57
2021/05/28 09:18:05;;;;;;;9.63;5.90;;;;;;;17.93;49.11;102534.63;5072518;28;20044;-57
2021/05/28 09:20:32;;;;;;;9.38;5.90;;;;;;;18.28;48.78;102530.44;5068772;28;20051;-59
2021/05/28 09:23:26;;;;;;;9.27;5.68;;;;;;;18.33;49.41;102523.81;5068167;28;20059;-59
2021/05/28 09:26:19;;;;;;;10.65;5.40;;;;;;;18.73;48.74;102531.59;5069177;28;20393;-58
2021/05/28 09:28:48;;;;;;;11.20;6.38;;;;;;;18.54;48.85;102534.75;5068797;28;20067;-59
2021/05/28 09:31:23;;;;;;;8.48;5.20;;;;;;;18.70;47.45;102523.78;5072225;28;20371;-60
2021/05/28 09:33:52;;;;;;;9.25;4.78;;;;;;;18.80;47.06;102523.13;5072138;28;20522;-60
2021/05/28 09:36:22;;;;;;;7.30;4.38;;;;;;;19.13;44.86;102525.13;5054578;28;20048;-57
2021/05/28 09:39:11;;;;;;;7.38;3.85;;;;;;;19.23;46.54;102517.28;5072128;28;20065;-58
2021/05/28 09:41:40;;;;;;;7.88;4.72;;;;;;;19.17;43.91;102520.41;5069196;28;20048;-57
2021/05/28 09:44:18;;;;;;;6.85;3.67;;;;;;;18.96;43.76;102517.53;5071323;28;20041;-57
2021/05/28 09:46:57;;;;;;;7.05;3.50;;;;;;;19.14;41.65;102521.50;5071110;28;20044;-61
2021/05/28 09:49:27;;;;;;;8.45;3.95;;;;;;;19.23;43.04;102515.47;5072014;28;20453;-56
2021/05/28 09:52:16;;;;;;;6.90;3.10;;;;;;;19.67;42.71;102509.50;5054417;28;20503;-62
2021/05/28 09:54:57;;;;;;;6.68;3.10;;;;;;;19.81;44.60;102513.78;5072029;28;20483;-62
2021/05/28 09:57:30;;;;;;;8.07;3.55;;;;;;;20.14;39.23;102518.28;5070338;28;20123;-60
2021/05/28 09:59:58;;;;;;;6.10;2.13;;;;;;;20.38;38.86;102512.81;5070019;28;20056;-57
2021/05/28 10:02:33;;;;;;;6.32;3.40;;;;;;;20.37;39.67;102500.41;5071045;28;20044;-58
2021/05/28 10:05:00;;;;;;;3.35;1.85;;;;;;;20.51;36.86;102501.94;5070948;28;20048;-61
2021/05/28 10:07:29;;;;;;;4.32;2.00;;;;;;;20.69;35.93;102494.28;5054224;28;20083;-61
2021/05/28 10:09:57;;;;;;;3.25;1.58;;;;;;;21.24;36.01;102498.66;5070870;28;20090;-61
2021/05/28 10:12:24;;;;;;;4.25;1.95;;;;;;;21.18;33.72;102501.84;5070847;28;20407;-59
2021/05/28 10:14:52;;;;;;;4.28;2.45;;;;;;;21.38;33.93;102497.50;5071817;28;20048;-57
2021/05/28 10:17:20;;;;;;;4.03;2.53;;;;;;;21.40;34.50;102499.03;5070847;28;20051;-58
2021/05/28 10:19:47;;;;;;;6.00;2.78;;;;;;;21.03;33.41;102496.81;5071646;28;20052;-61
2021/05/28 10:22:17;;;;;;;5.20;2.42;;;;;;;21.23;35.63;102494.28;5070603;28;20044;-58
2021/05/28 10:24:47;;;;;;;4.32;2.42;;;;;;;21.24;34.90;102496.84;5070574;28;20509;-62
2021/05/28 10:27:24;;;;;;;5.68;3.35;;;;;;;20.93;37.23;102495.91;5053654;28;20060;-62
2021/05/28 10:29:52;;;;;;;8.10;4.60;;;;;;;20.53;38.34;102489.31;5068493;28;20040;-60
2021/05/28 10:32:19;;;;;;;8.45;3.92;;;;;;;20.88;38.12;102490.09;5068297;28;20040;-62
2021/05/28 10:35:06;;;;;;;6.95;3.25;;;;;;;21.10;39.22;102487.31;5070389;28;20040;-58
2021/05/28 10:37:33;;;;;;;5.93;3.05;;;;;;;21.34;38.10;102490.72;5071585;28;20049;-62
2021/05/28 10:39:59;;;;;;;6.80;3.70;;;;;;;21.20;37.88;102491.84;5074637;28;20052;-62
2021/05/28 10:42:26;;;;;;;4.93;2.60;;;;;;;21.14;34.93;102487.88;5071817;28;20044;-62
2021/05/28 10:44:53;;;;;;;5.93;3.40;;;;;;;21.51;37.07;102489.25;5072980;28;20048;-59
2021/05/28 10:47:21;;;;;;;3.47;2.00;;;;;;;21.58;34.36;102480.59;5075154;28;20052;-59
2021/05/28 10:49:53;;;;;;;4.13;1.70;;;;;;;21.68;32.74;102477.97;5073824;28;20090;-59
2021/05/28 10:52:34;;;;;;;2.97;1.50;;;;;;;21.92;32.62;102482.13;5073679;28;20040;-59
2021/05/28 10:55:09;;;;;;;3.15;1.60;;;;;;;22.41;30.73;102472.41;5075062;28;20132;-59
2021/05/28 10:57:53;;;;;;;1.73;1.10;;;;;;;22.34;29.84;102465.06;5074952;28;20131;-62
2021/05/28 11:00:27;;;;;;;2.40;1.42;;;;;;;22.08;29.41;102463.72;5074958;28;20090;-59
2021/05/28 11:02:59;;;;;;;1.50;1.10;;;;;;;22.00;28.93;102468.06;5074988;28;20049;-59
2021/05/28 11:05:43;;;;;;;1.27;0.98;;;;;;;22.19;30.01;102464.59;5075042;28;20617;-59
2021/05/28 11:08:29;;;;;;;;;;;;;;;22.21;29.89;102462.63;5075557;28;20043;-62
2021/05/28 11:10:56;;;;;;;2.55;1.00;;;;;;;22.55;30.20;102467.63;5072881;28;19924;-62
2021/05/28 11:13:23;;;;;;;1.00;0.93;;;;;;;22.36;29.30;102460.41;5071989;28;20053;-59
2021/05/28 11:15:57;;;;;;;3.28;1.23;;;;;;;22.58;26.86;102457.50;5074653;28;20048;-59
2021/05/28 11:18:44;;;;;;;2.80;1.17;;;;;;;22.38;26.44;102453.94;5074903;28;20079;-59
2021/05/28 11:21:16;;;;;;;2.17;1.23;;;;;;;22.54;27.82;102457.94;5073493;28;20047;-63
2021/05/28 11:23:48;;;;;;;3.35;1.30;;;;;;;22.69;26.96;102459.19;5074793;28;20033;-62
2021/05/28 11:26:17;;;;;;;4.20;1.30;;;;;;;22.50;29.31;102462.72;5056985;28;20139;-59
2021/05/28 11:28:56;;;;;;;3.33;1.38;;;;;;;22.94;29.20;102459.59;5072055;28;20056;-60
2021/05/28 11:31:29;;;;;;;2.92;1.30;;;;;;;22.90;29.26;102460.88;5071514;28;20059;-59